Time;durP1;ratioP1;P1;durP2;ratioP2;P2;SDS_P1;SDS_P2;PMS_P1;PMS_P2;Temp;Humidity;BMP_temperature;BMP_pressure;BME280_temperature;BME280_humidity;BME280_pressure;Samples;Min_cycle;Max_cycle;Signal;HPM_P1;HPM_P2
2021/04/20 00:02:17;;;;;;;32.80;25.60;;;;;;;9.68;87.54;96454.72;5073388;28;20164;-56
2021/04/20 00:04:43;;;;;;;28.40;23.47;;;;;;;9.64;87.25;96456.16;5073186;28;20168;-58
2021/04/20 00:07:08;;;;;;;30.80;24.73;;;;;;;9.60;87.49;96449.75;5072647;28;20181;-58
2021/04/20 00:09:34;;;;;;;33.37;24.30;;;;;;;9.59;87.44;96450.78;5073124;28;20221;-55
2021/04/20 00:11:59;;;;;;;30.10;23.87;;;;;;;9.62;87.22;96449.56;5063591;28;20267;-55
2021/04/20 00:14:25;;;;;;;33.67;25.00;;;;;;;9.55;87.02;96446.19;5054503;28;20655;-56
2021/04/20 00:16:51;;;;;;;31.13;22.50;;;;;;;9.52;86.88;96439.56;5052888;28;20173;-59
2021/04/20 00:19:16;;;;;;;28.90;24.83;;;;;;;9.28;87.35;96438.56;5052783;28;20204;-55
2021/04/20 00:21:41;;;;;;;31.13;22.87;;;;;;;9.38;87.50;96450.38;5053239;28;20556;-55
2021/04/20 00:24:07;;;;;;;29.27;22.77;;;;;;;9.46;86.17;96443.03;5052982;28;20248;-55
2021/04/20 00:26:33;;;;;;;26.40;21.83;;;;;;;9.46;85.74;96435.16;5053162;28;20170;-58
2021/04/20 00:28:58;;;;;;;30.50;22.40;;;;;;;9.48;85.16;96440.19;5064744;28;20474;-55
2021/04/20 00:31:23;;;;;;;28.00;21.90;;;;;;;9.34;84.77;96439.53;5073037;28;20185;-59
2021/04/20 00:33:49;;;;;;;29.57;23.33;;;;;;;9.16;85.93;96437.66;5075947;28;20173;-59
2021/04/20 00:36:14;;;;;;;26.10;22.00;;;;;;;9.15;85.91;96435.25;5076811;28;20168;-58
2021/04/20 00:38:40;;;;;;;29.17;23.20;;;;;;;9.14;85.72;96436.25;5076406;28;20183;-55
2021/04/20 00:41:10;;;;;;;29.23;22.10;;;;;;;9.18;84.88;96432.22;5069371;28;20168;-58
2021/04/20 00:43:38;;;;;;;26.27;21.33;;;;;;;9.16;84.59;96432.44;5076799;28;20255;-59
2021/04/20 00:46:12;;;;;;;27.60;21.97;;;;;;;9.06;84.37;96429.47;5076688;28;20409;-56
2021/04/20 00:48:38;;;;;;;28.93;22.23;;;;;;;8.88;84.82;96428.59;5076039;28;20428;-58
2021/04/20 00:51:05;;;;;;;27.83;21.97;;;;;;;8.85;85.17;96426.41;5076355;28;20453;-55
2021/04/20 00:53:31;;;;;;;28.40;22.60;;;;;;;8.75;85.37;96415.63;5076576;28;20831;-55
2021/04/20 00:55:56;;;;;;;27.87;21.80;;;;;;;8.55;85.47;96414.94;5072966;28;20454;-59
2021/04/20 00:58:22;;;;;;;27.37;20.90;;;;;;;8.46;85.93;96422.22;5055924;28;20497;-55
2021/04/20 01:00:48;;;;;;;27.20;20.67;;;;;;;8.43;86.84;96421.84;5055027;28;20174;-56
2021/04/20 01:03:14;;;;;;;25.10;20.10;;;;;;;8.51;85.72;96419.81;5056482;28;20175;-56
2021/04/20 01:05:40;;;;;;;28.37;21.93;;;;;;;8.48;85.53;96422.84;5060176;28;20423;-58
2021/04/20 01:08:11;;;;;;;25.13;20.40;;;;;;;8.42;86.16;96420.25;5073576;28;20544;-59
2021/04/20 01:10:40;;;;;;;24.93;19.40;;;;;;;8.39;85.60;96410.22;5073181;28;20192;-55
2021/04/20 01:13:06;;;;;;;20.50;18.13;;;;;;;8.36;84.61;96405.38;5054906;28;20395;-58
2021/04/20 01:15:32;;;;;;;22.73;18.23;;;;;;;8.42;84.64;96413.22;5056014;28;20416;-58
2021/04/20 01:18:22;;;;;;;24.97;20.50;;;;;;;8.25;84.98;96414.72;5055836;28;20407;-55
2021/04/20 01:20:51;;;;;;;24.90;19.83;;;;;;;8.10;85.60;96411.53;5055657;28;20414;-59
2021/04/20 01:23:41;;;;;;;26.03;19.67;;;;;;;7.95;87.28;96408.41;5056167;28;20436;-55
2021/04/20 01:26:08;;;;;;;24.00;19.70;;;;;;;7.90;87.53;96416.84;5063733;28;20782;-58
2021/04/20 01:28:35;;;;;;;22.13;18.90;;;;;;;8.04;86.98;96405.31;5075372;28;20446;-59
2021/04/20 01:31:00;;;;;;;22.30;18.43;;;;;;;8.10;86.02;96404.50;5063445;28;20452;-59
2021/04/20 01:33:26;;;;;;;22.30;19.23;;;;;;;8.04;86.01;96409.75;5055854;28;20402;-58
2021/04/20 01:35:51;;;;;;;22.70;18.40;;;;;;;8.01;86.40;96402.31;5055722;28;20179;-55
2021/04/20 01:38:18;;;;;;;19.87;17.77;;;;;;;7.96;85.58;96400.34;5056093;28;20186;-56
2021/04/20 01:40:43;;;;;;;26.33;17.10;;;;;;;7.79;86.29;96407.03;5062438;28;20183;-58
2021/04/20 01:43:12;;;;;;;22.33;19.10;;;;;;;7.69;86.71;96406.69;5056834;28;20428;-59
2021/04/20 01:45:40;;;;;;;21.50;17.47;;;;;;;7.67;87.14;96411.31;5075745;28;20162;-55
2021/04/20 01:48:06;;;;;;;22.67;19.90;;;;;;;7.68;87.17;96405.06;5075051;28;20923;-60
2021/04/20 01:50:31;;;;;;;23.23;18.23;;;;;;;7.45;87.73;96409.13;5075165;28;20549;-57
2021/04/20 01:52:57;;;;;;;23.33;19.20;;;;;;;7.32;87.55;96411.81;5074480;28;20184;-56
2021/04/20 01:55:22;;;;;;;24.00;18.80;;;;;;;7.31;88.17;96424.06;5075001;28;20177;-59
2021/04/20 01:57:50;;;;;;;25.57;19.43;;;;;;;7.32;88.61;96417.81;5073922;28;20613;-56
2021/04/20 02:00:19;;;;;;;24.77;19.93;;;;;;;7.22;88.60;96415.63;5055253;28;20553;-55
2021/04/20 02:02:45;;;;;;;26.50;20.83;;;;;;;7.25;88.89;96412.63;5054867;28;20422;-55
2021/04/20 02:05:11;;;;;;;28.33;20.40;;;;;;;7.00;90.07;96418.66;5061103;28;20432;-56
2021/04/20 02:07:38;;;;;;;27.70;21.47;;;;;;;7.07;91.00;96414.22;5073262;28;20232;-55
2021/04/20 02:10:08;;;;;;;27.57;20.83;;;;;;;7.28;90.00;96416.63;5074649;28;20472;-58
2021/04/20 02:12:35;;;;;;;29.73;21.20;;;;;;;7.18;89.23;96421.47;5073768;28;20405;-59
2021/04/20 02:15:03;;;;;;;23.00;18.60;;;;;;;7.13;88.70;96421.28;5075028;28;20437;-58
2021/04/20 02:17:28;;;;;;;24.43;19.23;;;;;;;7.19;87.64;96415.25;5074664;28;20410;-55
2021/04/20 02:19:54;;;;;;;20.37;17.10;;;;;;;7.08;88.30;96421.06;5073808;28;20436;-56
2021/04/20 02:22:21;;;;;;;21.90;17.20;;;;;;;7.16;88.14;96411.22;5071438;28;20168;-55
2021/04/20 02:24:46;;;;;;;22.87;18.83;;;;;;;7.25;88.53;96417.03;5054778;28;20176;-55
2021/04/20 02:27:12;;;;;;;23.83;17.87;;;;;;;7.30;87.42;96412.00;5054516;28;20472;-59
2021/04/20 02:29:39;;;;;;;21.70;18.53;;;;;;;7.18;87.31;96419.66;5054609;28;20194;-58
2021/04/20 02:32:05;;;;;;;18.90;16.03;;;;;;;7.24;86.73;96411.03;5068132;28;20456;-59
2021/04/20 02:34:31;;;;;;;17.83;15.93;;;;;;;7.24;86.20;96412.81;5057292;28;20428;-59
2021/04/20 02:36:57;;;;;;;20.53;17.50;;;;;;;7.26;86.36;96413.41;5054307;28;20414;-59
2021/04/20 02:39:23;;;;;;;56.33;19.47;;;;;;;7.23;86.73;96414.63;5054296;28;20189;-55
2021/04/20 02:41:49;;;;;;;25.60;18.77;;;;;;;6.96;87.25;96412.22;5054584;28;20227;-58
2021/04/20 02:44:16;;;;;;;25.60;19.73;;;;;;;6.97;88.78;96414.66;5054274;28;20425;-58
2021/04/20 02:46:43;;;;;;;75.97;21.97;;;;;;;7.07;88.81;96411.63;5062541;28;20480;-59
2021/04/20 02:49:10;;;;;;;28.73;19.63;;;;;;;7.11;87.68;96413.63;5061148;28;20438;-60
2021/04/20 02:51:37;;;;;;;21.07;17.70;;;;;;;6.98;89.85;96405.00;5074351;28;20461;-58
2021/04/20 02:54:03;;;;;;;23.67;19.10;;;;;;;7.18;89.31;96406.59;5074303;28;20402;-55
2021/04/20 02:56:30;;;;;;;88.83;22.80;;;;;;;7.30;87.95;96412.78;5073509;28;20410;-55
2021/04/20 02:58:59;;;;;;;75.37;21.10;;;;;;;7.39;88.40;96415.22;5073815;28;20653;-55
2021/04/20 03:01:29;;;;;;;99.23;22.97;;;;;;;7.39;88.48;96412.59;5071856;28;20905;-55
2021/04/20 03:03:55;;;;;;;45.53;20.90;;;;;;;7.36;87.66;96405.94;5072697;28;20500;-59
2021/04/20 03:06:21;;;;;;;76.63;20.07;;;;;;;7.36;88.68;96407.75;5074109;28;20410;-58
2021/04/20 03:08:47;;;;;;;29.47;19.40;;;;;;;7.11;88.76;96410.22;5073574;28;20431;-59
2021/04/20 03:11:21;;;;;;;23.93;16.53;;;;;;;7.04;88.57;96407.63;5052870;28;20206;-55
2021/04/20 03:13:47;;;;;;;78.43;19.63;;;;;;;6.72;90.65;96399.78;5053905;28;20903;-60
2021/04/20 03:16:14;;;;;;;56.93;20.00;;;;;;;6.91;90.45;96393.75;5053998;28;20443;-58
2021/04/20 03:18:41;;;;;;;122.00;20.43;;;;;;;6.79;90.36;96408.44;5053452;28;20194;-58
2021/04/20 03:21:09;;;;;;;23.30;18.53;;;;;;;6.41;91.53;96402.16;5053646;28;20418;-58
2021/04/20 03:23:35;;;;;;;40.50;21.00;;;;;;;6.14;93.98;96399.50;5055560;28;20416;-58
2021/04/20 03:26:02;;;;;;;88.20;23.60;;;;;;;5.99;95.96;96396.25;5073387;28;20414;-58
2021/04/20 03:28:28;;;;;;;34.10;22.20;;;;;;;5.91;96.46;96398.22;5073122;28;20695;-58
2021/04/20 03:30:54;;;;;;;28.57;22.10;;;;;;;6.25;96.02;96390.28;5054746;28;20462;-55
2021/04/20 03:33:39;;;;;;;31.93;21.30;;;;;;;6.57;93.68;96396.56;5053584;28;20171;-59
2021/04/20 03:36:10;;;;;;;26.93;21.20;;;;;;;6.74;93.38;96392.56;5053657;28;20421;-58
2021/04/20 03:38:45;;;;;;;36.97;22.97;;;;;;;6.57;92.62;96393.94;5056532;28;20445;-58
2021/04/20 03:41:15;;;;;;;36.17;21.83;;;;;;;6.31;94.31;96389.50;5073429;28;20433;-56
2021/04/20 03:43:44;;;;;;;29.50;23.23;;;;;;;6.46;94.60;96389.31;5072718;28;20432;-59
2021/04/20 03:46:16;;;;;;;30.07;22.87;;;;;;;6.48;94.10;96387.31;5073310;28;20892;-55
2021/04/20 03:48:51;;;;;;;28.23;21.20;;;;;;;6.50;94.52;96380.91;5063565;28;20445;-55
2021/04/20 03:51:23;;;;;;;29.20;21.70;;;;;;;6.56;94.02;96380.09;5073045;28;20822;-59
2021/04/20 03:53:52;;;;;;;30.07;22.13;;;;;;;6.50;93.88;96386.13;5060991;28;20778;-55
2021/04/20 03:56:22;;;;;;;29.70;22.10;;;;;;;6.51;94.17;96381.69;5073351;28;20404;-55
2021/04/20 03:58:51;;;;;;;27.57;21.50;;;;;;;6.41;95.14;96378.69;5062394;28;20478;-55
2021/04/20 04:01:18;;;;;;;27.80;21.70;;;;;;;6.60;95.01;96383.91;5053083;28;20490;-55
2021/04/20 04:03:45;;;;;;;27.63;22.10;;;;;;;6.88;94.90;96383.72;5053423;28;20784;-59
2021/04/20 04:06:13;;;;;;;25.90;21.13;;;;;;;7.05;93.15;96379.66;5053776;28;20406;-55
2021/04/20 04:08:41;;;;;;;24.40;19.57;;;;;;;7.05;92.78;96377.88;5056970;28;20582;-55
2021/04/20 04:11:08;;;;;;;27.20;22.23;;;;;;;6.92;91.36;96380.50;5057200;28;20451;-59
2021/04/20 04:13:38;;;;;;;26.60;20.50;;;;;;;6.66;91.43;96383.13;5064445;28;20429;-60
2021/04/20 04:16:05;;;;;;;22.73;19.87;;;;;;;6.75;92.86;96388.94;5077385;28;20425;-59
2021/04/20 04:18:32;;;;;;;23.97;19.53;;;;;;;6.90;92.40;96382.50;5060312;28;20446;-57
2021/04/20 04:21:04;;;;;;;25.80;19.10;;;;;;;6.90;91.68;96386.94;5066471;28;20426;-59
2021/04/20 04:23:45;;;;;;;22.53;19.03;;;;;;;6.81;91.46;96386.31;5073442;28;20445;-55
2021/04/20 04:26:25;;;;;;;24.80;19.60;;;;;;;6.73;91.21;96383.91;5069229;28;20423;-55
2021/04/20 04:28:55;;;;;;;28.50;20.67;;;;;;;6.45;95.96;96385.13;5056475;28;20434;-58
2021/04/20 04:31:21;;;;;;;28.17;20.57;;;;;;;6.71;95.46;96382.50;5055550;28;20457;-59
2021/04/20 04:33:48;;;;;;;27.30;21.03;;;;;;;6.83;94.71;96392.16;5057761;28;20769;-55
2021/04/20 04:36:15;;;;;;;24.67;19.03;;;;;;;7.05;92.92;96388.31;5056882;28;20408;-58
2021/04/20 04:38:41;;;;;;;20.17;17.93;;;;;;;7.14;92.03;96389.72;5074931;28;20472;-55
2021/04/20 04:41:07;;;;;;;20.67;17.80;;;;;;;7.07;90.79;96383.69;5076725;28;20402;-58
2021/04/20 04:43:34;;;;;;;22.47;18.77;;;;;;;7.21;91.11;96392.34;5076046;28;20410;-55
2021/04/20 04:46:00;;;;;;;20.37;17.57;;;;;;;7.24;90.03;96387.50;5076722;28;20482;-55
2021/04/20 04:48:26;;;;;;;20.87;16.90;;;;;;;7.23;89.80;96398.13;5056365;28;20940;-55
2021/04/20 04:50:53;;;;;;;21.23;18.53;;;;;;;7.30;89.35;96394.50;5064927;28;20250;-58
2021/04/20 04:53:20;;;;;;;21.10;17.43;;;;;;;7.28;88.03;96385.28;5076548;28;20513;-58
2021/04/20 04:55:45;;;;;;;20.40;17.53;;;;;;;7.08;87.91;96392.34;5076597;28;20409;-60
2021/04/20 04:58:12;;;;;;;20.47;18.27;;;;;;;6.62;90.86;96394.97;5075975;28;20417;-55
2021/04/20 05:00:39;;;;;;;24.20;19.47;;;;;;;6.74;92.06;96393.34;5076283;28;20171;-55
2021/04/20 05:03:06;;;;;;;21.90;18.23;;;;;;;6.93;91.25;96394.34;5057558;28;20918;-58
2021/04/20 05:05:32;;;;;;;22.17;18.70;;;;;;;7.04;90.58;96393.75;5055072;28;20784;-58
2021/04/20 05:08:01;;;;;;;22.60;17.90;;;;;;;7.18;89.29;96390.91;5055827;28;20414;-59
2021/04/20 05:10:26;;;;;;;23.80;18.00;;;;;;;7.07;90.06;96395.94;5056228;28;20450;-55
2021/04/20 05:12:53;;;;;;;20.57;18.23;;;;;;;7.15;90.96;96401.78;5056072;28;20496;-55
2021/04/20 05:15:20;;;;;;;22.93;18.37;;;;;;;7.19;89.82;96391.72;5056024;28;20180;-55
2021/04/20 05:17:45;;;;;;;24.00;20.13;;;;;;;7.23;89.29;96385.06;5063125;28;20427;-56
2021/04/20 05:20:16;;;;;;;20.70;18.43;;;;;;;7.29;88.79;96392.91;5062093;28;20788;-59
2021/04/20 05:22:41;;;;;;;23.07;19.63;;;;;;;7.43;88.85;96387.66;5056366;28;20279;-55
2021/04/20 05:25:12;;;;;;;22.43;17.83;;;;;;;7.55;88.10;96391.22;5055998;28;20510;-56
2021/04/20 05:27:38;;;;;;;20.17;17.00;;;;;;;7.46;87.61;96389.84;5054231;28;20538;-60
2021/04/20 05:30:05;;;;;;;27.53;20.10;;;;;;;7.49;87.93;96392.84;5055641;28;20758;-59
2021/04/20 05:32:38;;;;;;;21.83;19.00;;;;;;;7.48;87.34;96395.69;5055488;28;20424;-55
2021/04/20 05:35:04;;;;;;;25.50;19.40;;;;;;;7.56;87.53;96398.88;5056031;28;20395;-58
2021/04/20 05:37:30;;;;;;;21.80;19.00;;;;;;;7.67;87.50;96390.38;5055431;28;20415;-59
2021/04/20 05:40:04;;;;;;;24.00;20.03;;;;;;;7.77;86.87;96403.03;5055485;28;20191;-58
2021/04/20 05:42:30;;;;;;;24.00;19.40;;;;;;;7.70;86.87;96400.44;5055750;28;20400;-55
2021/04/20 05:44:57;;;;;;;24.80;20.77;;;;;;;7.79;86.87;96403.63;5056542;28;20431;-58
2021/04/20 05:47:23;;;;;;;21.40;18.57;;;;;;;7.84;86.18;96399.38;5069399;28;20224;-60
2021/04/20 05:49:49;;;;;;;22.83;18.63;;;;;;;7.85;86.37;96397.56;5075271;28;20476;-55
2021/04/20 05:52:15;;;;;;;23.50;20.20;;;;;;;7.91;86.20;96402.78;5075577;28;20246;-55
2021/04/20 05:54:40;;;;;;;24.67;20.17;;;;;;;7.98;86.85;96398.31;5075480;28;20407;-56
2021/04/20 05:57:05;;;;;;;26.93;21.50;;;;;;;8.11;86.19;96392.22;5074981;28;20669;-56
2021/04/20 05:59:31;;;;;;;33.47;26.90;;;;;;;8.24;86.27;96398.19;5074319;28;20598;-55
2021/04/20 06:01:56;;;;;;;38.80;28.63;;;;;;;8.24;88.02;96402.66;5062086;28;20174;-55
2021/04/20 06:04:22;;;;;;;40.50;30.57;;;;;;;8.22;89.40;96399.41;5055402;28;20201;-55
2021/04/20 06:06:48;;;;;;;42.73;31.20;;;;;;;8.24;90.71;96400.03;5055095;28;20171;-56
2021/04/20 06:09:14;;;;;;;40.97;30.40;;;;;;;8.44;90.43;96405.97;5054609;28;20444;-55
2021/04/20 06:11:40;;;;;;;41.23;29.87;;;;;;;8.56;90.06;96400.84;5054942;28;20228;-58
2021/04/20 06:14:06;;;;;;;45.10;31.47;;;;;;;8.66;89.89;96396.72;5055168;28;20429;-55
2021/04/20 06:16:31;;;;;;;46.83;32.70;;;;;;;8.73;90.62;96396.69;5066147;28;20185;-58
2021/04/20 06:18:57;;;;;;;45.03;31.80;;;;;;;8.74;91.38;96404.34;5074209;28;20440;-59
2021/04/20 06:21:26;;;;;;;45.87;32.70;;;;;;;8.96;90.92;96410.81;5072358;28;20174;-56
2021/04/20 06:23:51;;;;;;;44.10;29.53;;;;;;;9.13;90.25;96406.63;5054722;28;20174;-58
2021/04/20 06:26:17;;;;;;;41.87;29.80;;;;;;;9.27;89.83;96413.38;5059819;28;20448;-55
2021/04/20 06:28:43;;;;;;;42.97;31.27;;;;;;;9.37;89.60;96412.84;5068289;28;20453;-59
2021/04/20 06:31:10;;;;;;;42.00;29.97;;;;;;;9.50;89.63;96423.22;5057691;28;20199;-58
2021/04/20 06:33:37;;;;;;;42.53;33.90;;;;;;;9.52;90.08;96418.56;5060870;28;20185;-55
2021/04/20 06:36:08;;;;;;;54.57;38.90;;;;;;;9.54;90.85;96413.91;5062899;28;20419;-59
2021/04/20 06:38:36;;;;;;;46.63;33.93;;;;;;;9.67;90.55;96399.84;5074067;28;20794;-58
2021/04/20 06:41:04;;;;;;;48.43;35.97;;;;;;;9.72;90.29;96413.09;5057894;28;20411;-54
2021/04/20 06:43:36;;;;;;;52.37;33.90;;;;;;;9.74;90.52;96411.88;5060072;28;20450;-55
2021/04/20 06:46:14;;;;;;;49.87;34.30;;;;;;;9.72;90.39;96408.66;5067852;28;20557;-59
2021/04/20 06:48:46;;;;;;;45.23;32.60;;;;;;;9.84;90.41;96411.34;5055430;28;20451;-58
2021/04/20 06:51:20;;;;;;;44.37;32.50;;;;;;;9.94;90.47;96415.09;5067270;28;20452;-55
2021/04/20 06:54:19;;;;;;;45.90;32.07;;;;;;;10.07;90.38;96409.66;5071933;28;20447;-60
2021/04/20 06:57:02;;;;;;;43.33;31.50;;;;;;;10.11;89.73;96412.66;5052860;28;20479;-56
2021/04/20 07:00:06;;;;;;;36.90;28.47;;;;;;;10.18;89.68;96408.94;5057333;28;20937;-56
2021/04/20 07:02:37;;;;;;;40.80;28.27;;;;;;;10.24;89.30;96413.31;5068229;28;20461;-59
2021/04/20 07:05:07;;;;;;;38.23;29.90;;;;;;;10.33;89.81;96413.78;5057430;28;20435;-56
2021/04/20 07:07:54;;;;;;;38.43;29.53;;;;;;;10.56;88.73;96408.66;5064359;28;20462;-55
2021/04/20 07:10:32;;;;;;;39.37;26.77;;;;;;;10.65;88.67;96414.38;5053974;28;20538;-55
2021/04/20 07:12:59;;;;;;;40.77;29.27;;;;;;;10.67;87.65;96413.09;5072980;28;20515;-55
2021/04/20 07:15:27;;;;;;;35.90;26.93;;;;;;;10.63;87.61;96411.16;5072662;28;20429;-55
2021/04/20 07:18:22;;;;;;;34.70;27.23;;;;;;;10.50;87.38;96406.09;5072485;28;20459;-55
2021/04/20 07:21:05;;;;;;;31.27;24.87;;;;;;;10.22;86.55;96410.09;5071849;28;20482;-55
2021/04/20 07:23:55;;;;;;;33.83;25.30;;;;;;;10.20;88.39;96406.09;5072849;28;20495;-56
2021/04/20 07:26:43;;;;;;;34.10;24.90;;;;;;;10.40;87.75;96405.84;5066665;28;20931;-56
2021/04/20 07:29:46;;;;;;;31.50;24.00;;;;;;;10.18;86.63;96408.94;5051249;28;20655;-59
2021/04/20 07:32:19;;;;;;;33.10;23.90;;;;;;;10.09;87.53;96405.00;5049955;28;20541;-56
2021/04/20 07:35:20;;;;;;;33.90;24.73;;;;;;;10.31;85.33;96407.97;5060794;28;20970;-58
2021/04/20 07:37:45;;;;;;;34.93;24.13;;;;;;;10.56;86.05;96405.22;5063707;28;20421;-58
2021/04/20 07:40:53;;;;;;;29.57;22.30;;;;;;;10.62;84.46;96413.00;5064779;28;20526;-57
2021/04/20 07:43:44;;;;;;;31.90;26.83;;;;;;;10.65;85.91;96409.94;5061425;28;20402;-56
2021/04/20 07:46:20;;;;;;;31.27;25.13;;;;;;;10.91;84.22;96408.72;5062681;28;20469;-60
2021/04/20 07:48:49;;;;;;;34.10;25.80;;;;;;;10.77;85.39;96404.69;5059817;28;20452;-56
2021/04/20 07:51:45;;;;;;;30.40;23.90;;;;;;;10.36;85.96;96408.13;5049593;28;20460;-59
2021/04/20 07:54:17;;;;;;;32.73;25.80;;;;;;;10.68;85.54;96406.84;5049348;28;20457;-58
2021/04/20 07:56:51;;;;;;;31.60;26.47;;;;;;;11.05;83.87;96408.28;5049988;28;20439;-57
2021/04/20 07:59:28;;;;;;;29.70;25.07;;;;;;;11.29;82.48;96406.47;5049649;28;20886;-58
2021/04/20 08:01:59;;;;;;;32.33;25.80;;;;;;;11.54;83.56;96412.28;5050734;28;20938;-57
2021/04/20 08:04:49;;;;;;;31.23;24.73;;;;;;;11.63;86.82;96410.13;5049714;28;20421;-58
2021/04/20 08:07:23;;;;;;;33.03;26.57;;;;;;;11.88;84.02;96406.22;5049341;28;20405;-58
2021/04/20 08:09:50;;;;;;;28.60;24.20;;;;;;;12.05;81.74;96406.28;5049542;28;20917;-58
2021/04/20 08:12:25;;;;;;;30.67;25.97;;;;;;;12.35;81.24;96402.41;5061554;28;20975;-63
2021/04/20 08:15:01;;;;;;;31.80;24.87;;;;;;;12.70;81.21;96404.09;5048413;28;20413;-59
2021/04/20 08:17:55;;;;;;;24.73;22.03;;;;;;;12.69;81.15;96402.47;5062277;28;20436;-58
2021/04/20 08:20:24;;;;;;;19.40;17.30;;;;;;;12.78;77.47;96401.03;5068663;28;20472;-60
2021/04/20 08:22:50;;;;;;;23.10;19.70;;;;;;;12.91;74.09;96406.84;5069516;28;21236;-59
2021/04/20 08:25:39;;;;;;;22.57;20.13;;;;;;;12.64;75.25;96394.47;5068738;28;20515;-59
2021/04/20 08:28:45;;;;;;;25.03;21.57;;;;;;;12.64;77.62;96402.38;5049684;28;20466;-59
2021/04/20 08:31:19;;;;;;;25.00;21.07;;;;;;;12.91;75.29;96396.28;5063243;28;20477;-60
2021/04/20 08:33:49;;;;;;;24.47;20.90;;;;;;;13.02;77.08;96394.59;5069414;28;20417;-61
2021/04/20 08:36:35;;;;;;;24.20;20.53;;;;;;;13.22;76.54;96394.94;5069564;28;20405;-62
2021/04/20 08:39:18;;;;;;;24.77;22.17;;;;;;;13.14;75.77;96396.16;5068890;28;20436;-63
2021/04/20 08:41:54;;;;;;;25.07;21.63;;;;;;;13.20;75.88;96397.84;5068836;28;20968;-57
2021/04/20 08:44:25;;;;;;;21.20;18.83;;;;;;;12.94;70.61;96403.72;5065448;28;20425;-62
2021/04/20 08:46:59;;;;;;;23.37;20.40;;;;;;;12.63;74.47;96395.53;5053685;28;20863;-61
2021/04/20 08:50:00;;;;;;;26.17;20.83;;;;;;;12.97;74.57;96392.66;5062279;28;20464;-62
2021/04/20 08:52:51;;;;;;;24.17;20.97;;;;;;;13.18;73.72;96391.19;5066918;28;20528;-61
2021/04/20 08:55:28;;;;;;;22.80;20.23;;;;;;;13.27;70.02;96393.19;5072860;28;20405;-65
2021/04/20 08:58:04;;;;;;;23.87;21.27;;;;;;;13.43;69.39;96388.91;5070864;28;20790;-65
2021/04/20 09:00:45;;;;;;;22.67;20.20;;;;;;;13.46;72.77;96391.06;5072702;28;20420;-56
2021/04/20 09:03:44;;;;;;;21.97;18.53;;;;;;;13.61;73.00;96393.13;5067329;28;20430;-59
2021/04/20 09:06:22;;;;;;;20.67;18.60;;;;;;;13.35;74.41;96397.25;5072173;28;20804;-58
2021/04/20 09:08:52;;;;;;;20.53;18.33;;;;;;;13.58;71.95;96397.06;5072357;28;20420;-62
2021/04/20 09:11:24;;;;;;;20.70;18.47;;;;;;;13.46;74.56;96391.06;5062263;28;20469;-62
2021/04/20 09:14:09;;;;;;;20.13;18.03;;;;;;;13.60;72.79;96392.34;5068413;28;20473;-65
2021/04/20 09:16:57;;;;;;;18.03;16.13;;;;;;;13.52;70.26;96391.94;5062558;28;20510;-60
2021/04/20 09:19:33;;;;;;;18.30;16.47;;;;;;;13.75;68.64;96394.38;5069038;28;20448;-62
2021/04/20 09:22:20;;;;;;;18.83;16.63;;;;;;;14.08;69.70;96386.31;5051291;28;20420;-59
2021/04/20 09:25:04;;;;;;;16.77;15.13;;;;;;;14.34;68.36;96381.13;5057071;28;20444;-63
2021/04/20 09:28:25;;;;;;;16.77;15.07;;;;;;;14.59;67.82;96377.13;5059539;28;20424;-59
2021/04/20 09:30:53;;;;;;;16.90;15.10;;;;;;;14.68;65.15;96371.13;5022442;28;20498;-60
2021/04/20 09:33:23;;;;;;;15.73;14.13;;;;;;;14.76;62.08;96377.81;5064207;28;20417;-59
2021/04/20 09:35:51;;;;;;;17.33;15.23;;;;;;;14.56;66.47;96375.00;5070952;28;20470;-61
2021/04/20 09:38:18;;;;;;;14.23;12.83;;;;;;;14.20;62.67;96371.94;5071785;28;20952;-61
2021/04/20 09:40:46;;;;;;;13.30;12.00;;;;;;;13.65;64.97;96376.56;5069837;28;20519;-61
2021/04/20 09:43:23;;;;;;;12.83;11.53;;;;;;;14.35;66.40;96373.97;5072018;28;20823;-61
2021/04/20 09:46:02;;;;;;;11.83;10.63;;;;;;;14.59;67.06;96371.84;5069280;28;20548;-59
2021/04/20 09:49:12;;;;;;;14.87;13.30;;;;;;;14.95;63.76;96371.09;5071605;28;20450;-58
2021/04/20 09:51:50;;;;;;;12.03;10.93;;;;;;;15.26;64.62;96371.09;5070507;28;20475;-61
2021/04/20 09:54:24;;;;;;;12.50;11.30;;;;;;;15.26;64.44;96370.28;5068884;28;20819;-57
2021/04/20 09:56:55;;;;;;;15.40;12.40;;;;;;;15.13;62.96;96374.16;5051666;28;20432;-64
2021/04/20 09:59:26;;;;;;;14.13;12.50;;;;;;;15.54;61.29;96385.88;5051641;28;20441;-61
2021/04/20 10:02:03;;;;;;;14.20;12.80;;;;;;;14.49;59.04;96377.84;5051612;28;20406;-61
2021/04/20 10:04:38;;;;;;;13.70;12.30;;;;;;;15.00;59.59;96374.59;5051329;28;20780;-60
2021/04/20 10:07:10;;;;;;;16.60;15.00;;;;;;;15.58;59.72;96380.88;5068401;28;20938;-61
2021/04/20 10:09:44;;;;;;;16.40;14.70;;;;;;;15.95;60.28;96384.22;5056891;28;20506;-56
2021/04/20 10:12:33;;;;;;;16.10;14.40;;;;;;;16.20;59.75;96368.41;5051665;28;20575;-55
2021/04/20 10:15:09;;;;;;;12.30;11.10;;;;;;;16.40;55.89;96374.56;5069830;28;20528;-59
2021/04/20 10:18:16;;;;;;;14.47;13.07;;;;;;;16.12;58.00;96372.38;5054692;28;20429;-60
2021/04/20 10:21:08;;;;;;;14.00;12.70;;;;;;;16.36;55.59;96367.38;5054819;28;20456;-59
2021/04/20 10:23:59;;;;;;;13.60;12.27;;;;;;;16.42;60.29;96363.69;5059523;28;20958;-56
2021/04/20 10:27:04;;;;;;;14.30;12.90;;;;;;;16.44;56.64;96361.59;5074133;28;20432;-59
2021/04/20 10:29:54;;;;;;;13.80;12.50;;;;;;;16.42;57.98;96356.56;5074035;28;20476;-60
2021/04/20 10:32:30;;;;;;;13.43;11.93;;;;;;;16.52;56.40;96362.97;5068605;28;20460;-58
2021/04/20 10:34:57;;;;;;;11.73;10.60;;;;;;;16.50;55.88;96357.94;5056453;28;20410;-59
2021/04/20 10:37:37;;;;;;;13.37;12.20;;;;;;;16.48;59.82;96354.75;5053943;28;20410;-56
2021/04/20 10:40:10;;;;;;;14.23;12.93;;;;;;;16.82;58.05;96355.03;5054091;28;20527;-59
2021/04/20 10:42:37;;;;;;;12.60;11.30;;;;;;;16.93;58.38;96351.31;5054734;28;20429;-59
2021/04/20 10:45:07;;;;;;;11.93;10.80;;;;;;;16.94;52.54;96351.06;5059339;28;20412;-56
2021/04/20 10:47:38;;;;;;;11.10;10.10;;;;;;;17.11;48.71;96343.63;5074107;28;20542;-56
2021/04/20 10:50:06;;;;;;;16.30;14.80;;;;;;;16.94;53.95;96339.66;5073491;28;20498;-61
2021/04/20 10:52:34;;;;;;;17.93;14.93;;;;;;;17.30;54.27;96343.88;5064583;28;20433;-61
2021/04/20 10:55:05;;;;;;;16.87;15.10;;;;;;;16.97;56.42;96342.56;5050754;28;20413;-60
2021/04/20 10:57:33;;;;;;;17.10;14.90;;;;;;;17.35;56.51;96339.34;5051380;28;20430;-58
2021/04/20 11:00:02;;;;;;;14.33;12.83;;;;;;;17.61;56.91;96336.66;5057040;28;20445;-58
2021/04/20 11:02:34;;;;;;;14.93;13.43;;;;;;;17.38;54.63;96330.03;5063364;28;20440;-61
2021/04/20 11:05:00;;;;;;;13.70;12.40;;;;;;;17.32;54.68;96331.09;5049971;28;20544;-60
2021/04/20 11:07:40;;;;;;;13.80;12.47;;;;;;;17.87;50.98;96332.84;5049872;28;20901;-59
2021/04/20 11:10:08;;;;;;;13.00;11.70;;;;;;;17.97;51.31;96322.19;5050404;28;20437;-59
2021/04/20 11:12:41;;;;;;;16.07;14.43;;;;;;;18.08;50.84;96319.19;5051252;28;20442;-56
2021/04/20 11:15:07;;;;;;;14.37;12.90;;;;;;;17.40;50.88;96326.06;5050271;28;20418;-54
2021/04/20 11:17:45;;;;;;;13.40;12.10;;;;;;;17.94;51.73;96315.53;5050796;28;20434;-57
2021/04/20 11:20:15;;;;;;;14.00;12.70;;;;;;;18.07;50.29;96320.28;5067466;28;20449;-56
2021/04/20 11:22:48;;;;;;;15.40;13.00;;;;;;;18.04;51.36;96312.03;5070305;28;20413;-54
2021/04/20 11:25:22;;;;;;;14.93;13.20;;;;;;;17.74;50.55;96325.44;5070181;28;20412;-58
2021/04/20 11:27:54;;;;;;;14.43;12.93;;;;;;;17.55;49.29;96319.13;5064708;28;20426;-57
2021/04/20 11:30:22;;;;;;;13.33;12.03;;;;;;;18.24;48.31;96318.03;5049224;28;20442;-59
2021/04/20 11:32:50;;;;;;;13.43;12.13;;;;;;;18.06;47.59;96310.69;5049900;28;20789;-56
2021/04/20 11:35:20;;;;;;;13.03;11.73;;;;;;;17.82;46.25;96301.78;5051764;28;20429;-57
2021/04/20 11:37:47;;;;;;;12.30;10.93;;;;;;;17.99;47.77;96302.22;5049818;28;20424;-60
2021/04/20 11:40:27;;;;;;;10.53;9.50;;;;;;;17.73;45.59;96305.25;5049333;28;20920;-60
2021/04/20 11:42:55;;;;;;;9.90;9.00;;;;;;;17.68;48.04;96299.97;5070806;28;20841;-63
2021/04/20 11:45:23;;;;;;;10.77;9.70;;;;;;;17.57;47.73;96303.72;5073458;28;20441;-57